Time;durP1;ratioP1;P1;durP2;ratioP2;P2;SDS_P1;SDS_P2;PMS_P1;PMS_P2;Temp;Humidity;BMP_temperature;BMP_pressure;BME280_temperature;BME280_humidity;BME280_pressure;Samples;Min_cycle;Max_cycle;Signal;HPM_P1;HPM_P2
2023/04/09 00:00:38;;;;;;;67.22;27.17;;;9.00;99.90;;;;;;5095318;28;20023;-82
2023/04/09 00:03:04;;;;;;;59.47;25.67;;;9.00;99.90;;;;;;5111901;28;20372;-83
2023/04/09 00:05:30;;;;;;;64.32;26.10;;;9.10;99.90;;;;;;5078525;28;20081;-83
2023/04/09 00:07:56;;;;;;;63.75;25.80;;;9.10;99.90;;;;;;5058723;28;20043;-82
2023/04/09 00:10:21;;;;;;;57.58;23.65;;;9.10;99.90;;;;;;5095216;28;20126;-83
2023/04/09 00:12:47;;;;;;;54.67;23.75;;;9.00;99.90;;;;;;5095183;28;20118;-83
2023/04/09 00:15:13;;;;;;;59.50;24.77;;;9.00;99.90;;;;;;5077719;28;20035;-82
2023/04/09 00:17:39;;;;;;;57.35;24.80;;;9.00;99.90;;;;;;5094415;28;20109;-84
2023/04/09 00:20:06;;;;;;;56.10;23.23;;;9.00;99.90;;;;;;5094419;28;20043;-83
2023/04/09 00:22:32;;;;;;;57.55;24.83;;;9.00;99.90;;;;;;5111713;28;20050;-83
2023/04/09 00:24:57;;;;;;;55.17;23.38;;;9.00;99.90;;;;;;5077338;28;20039;-83
2023/04/09 00:27:23;;;;;;;58.17;25.25;;;9.00;99.90;;;;;;5111836;28;20036;-83
2023/04/09 00:29:49;;;;;;;57.15;24.55;;;9.00;99.90;;;;;;5111694;28;20040;-83
2023/04/09 00:32:15;;;;;;;63.80;25.37;;;8.90;99.90;;;;;;5077475;28;20047;-83
2023/04/09 00:34:40;;;;;;;66.43;26.30;;;8.90;99.90;;;;;;5094363;28;20028;-83
2023/04/09 00:37:06;;;;;;;55.38;23.25;;;8.90;99.90;;;;;;5077354;28;20036;-83
2023/04/09 00:39:32;;;;;;;62.28;24.20;;;8.90;99.90;;;;;;5094443;28;20036;-84
2023/04/09 00:42:01;;;;;;;51.50;20.65;;;8.90;99.90;;;;;;5093885;28;20184;-84
2023/04/09 00:44:27;;;;;;;53.40;22.45;;;8.90;99.90;;;;;;5094500;28;20059;-83
2023/04/09 00:46:53;;;;;;;51.63;21.55;;;8.90;99.90;;;;;;5077817;28;20506;-84
2023/04/09 00:49:19;;;;;;;;;;;8.90;99.90;;;;;;5111623;28;20136;-83
2023/04/09 00:51:46;;;;;;;47.42;20.85;;;8.90;99.90;;;;;;5077962;28;19953;-83
2023/04/09 00:54:12;;;;;;;53.08;21.85;;;8.80;99.90;;;;;;5094233;28;20031;-84
2023/04/09 00:56:38;;;;;;;46.47;20.20;;;8.80;99.90;;;;;;5077443;28;20040;-83
2023/04/09 00:59:04;;;;;;;47.10;21.02;;;8.80;99.90;;;;;;5076878;28;20467;-83
2023/04/09 01:01:30;;;;;;;47.42;19.77;;;8.80;99.90;;;;;;5077561;28;20483;-84
2023/04/09 01:03:56;;;;;;;44.55;19.23;;;8.80;99.90;;;;;;5076553;28;20073;-84
2023/04/09 01:06:30;;;;;;;46.53;19.10;;;8.80;99.90;;;;;;5093592;28;20042;-84
2023/04/09 01:09:05;;;;;;;47.83;19.65;;;8.70;99.90;;;;;;5094146;28;20404;-84
2023/04/09 01:11:53;;;;;;;46.53;18.65;;;8.70;99.90;;;;;;5093500;28;20114;-84
2023/04/09 01:14:43;;;;;;;41.95;18.63;;;8.70;99.90;;;;;;5093028;28;20100;-84
2023/04/09 01:17:17;;;;;;;44.90;18.52;;;8.70;99.90;;;;;;5108552;28;20441;-83
2023/04/09 01:19:53;;;;;;;40.85;17.33;;;8.70;99.90;;;;;;5093241;28;20039;-84
2023/04/09 01:22:48;;;;;;;43.42;18.98;;;8.70;99.90;;;;;;5093377;28;20047;-84
2023/04/09 01:25:26;;;;;;;43.03;19.55;;;8.70;99.90;;;;;;5110145;28;20043;-81
2023/04/09 01:28:22;;;;;;;41.22;17.17;;;8.70;99.90;;;;;;5110054;28;20039;-82
2023/04/09 01:30:51;;;;;;;39.90;17.75;;;8.70;99.90;;;;;;5093548;28;20043;-83
2023/04/09 01:33:19;;;;;;;38.97;16.88;;;8.80;99.90;;;;;;5093254;28;20035;-82
2023/04/09 01:35:49;;;;;;;40.08;16.95;;;8.80;99.90;;;;;;5125578;27;20521;-82
2023/04/09 01:38:18;;;;;;;37.65;16.80;;;8.80;99.90;;;;;;5092648;28;20039;-82
2023/04/09 01:40:44;;;;;;;34.72;15.63;;;8.80;99.90;;;;;;5092513;28;20479;-82
2023/04/09 01:43:11;;;;;;;;;;;8.80;99.90;;;;;;5093518;28;20514;-82
2023/04/09 01:45:37;;;;;;;32.83;15.27;;;8.80;99.90;;;;;;5093034;28;19920;-82
2023/04/09 01:48:04;;;;;;;33.13;14.82;;;8.80;99.90;;;;;;5075941;28;20475;-83
2023/04/09 01:50:31;;;;;;;31.20;14.35;;;8.80;99.90;;;;;;5093012;28;20036;-82
2023/04/09 01:52:57;;;;;;;32.42;14.18;;;8.80;99.90;;;;;;5075912;28;20036;-83
2023/04/09 01:55:22;;;;;;;33.33;13.88;;;8.80;99.90;;;;;;5092837;28;20043;-82
2023/04/09 01:57:48;;;;;;;31.33;13.50;;;8.80;99.90;;;;;;5092579;28;20039;-83
2023/04/09 02:00:14;;;;;;;32.00;15.50;;;8.80;99.90;;;;;;5075394;28;20314;-83
2023/04/09 02:02:50;;;;;;;30.77;13.52;;;8.80;99.90;;;;;;5075898;28;20039;-83
2023/04/09 02:05:21;;;;;;;32.72;14.57;;;8.80;99.90;;;;;;5090253;28;20028;-82
2023/04/09 02:07:56;;;;;;;32.70;14.75;;;8.80;99.90;;;;;;5092552;28;20032;-82
2023/04/09 02:10:28;;;;;;;34.22;14.95;;;8.80;99.90;;;;;;5090455;28;20035;-82
2023/04/09 02:12:55;;;;;;;29.88;13.65;;;8.70;99.90;;;;;;5109328;28;20035;-82
2023/04/09 02:15:22;;;;;;;32.08;14.68;;;8.70;99.90;;;;;;5092142;28;20040;-83
2023/04/09 02:17:47;;;;;;;29.83;14.65;;;8.70;99.90;;;;;;5109284;28;20541;-83
2023/04/09 02:20:17;;;;;;;33.15;14.65;;;8.70;99.90;;;;;;5074543;28;20040;-82
2023/04/09 02:22:47;;;;;;;32.28;13.95;;;8.70;99.90;;;;;;5092200;28;20035;-82
2023/04/09 02:25:14;;;;;;;30.17;14.68;;;8.70;99.90;;;;;;5109056;28;20038;-82
2023/04/09 02:27:40;;;;;;;30.40;13.50;;;8.70;99.90;;;;;;5092232;28;20126;-82
2023/04/09 02:30:06;;;;;;;31.83;13.95;;;8.70;99.90;;;;;;5091699;28;20414;-82
2023/04/09 02:32:32;;;;;;;;;;;8.70;99.90;;;;;;5092549;28;20042;-82
2023/04/09 02:34:57;;;;;;;32.08;14.23;;;8.60;99.90;;;;;;5075249;28;19916;-82
2023/04/09 02:37:23;;;;;;;32.30;13.38;;;8.60;99.90;;;;;;5075024;28;20407;-82
2023/04/09 02:39:49;;;;;;;29.58;13.15;;;8.50;99.90;;;;;;5092946;28;20027;-82
2023/04/09 02:42:14;;;;;;;32.50;15.10;;;8.60;99.90;;;;;;5075552;28;20051;-82
2023/04/09 02:44:40;;;;;;;31.27;14.10;;;8.60;99.90;;;;;;5075961;28;20273;-83
2023/04/09 02:47:06;;;;;;;33.50;14.17;;;8.50;99.90;;;;;;5075728;28;20281;-82
2023/04/09 02:49:31;;;;;;;31.07;13.70;;;8.50;99.90;;;;;;5076242;28;20691;-83
2023/04/09 02:51:57;;;;;;;28.95;13.30;;;8.50;99.90;;;;;;5075372;28;20119;-83
2023/04/09 02:54:23;;;;;;;32.63;14.25;;;8.50;99.90;;;;;;5076027;28;20031;-82
2023/04/09 02:56:48;;;;;;;30.70;14.13;;;8.50;99.90;;;;;;5093052;28;20127;-82
2023/04/09 02:59:15;;;;;;;35.73;14.90;;;8.50;99.90;;;;;;5092262;28;20035;-82
2023/04/09 03:01:40;;;;;;;34.28;14.95;;;8.50;99.90;;;;;;5076157;28;20826;-83
2023/04/09 03:04:06;;;;;;;33.07;14.43;;;8.50;99.90;;;;;;5092582;28;20069;-83
2023/04/09 03:06:32;;;;;;;30.90;14.67;;;8.50;99.90;;;;;;5092475;28;20273;-83
2023/04/09 03:08:57;;;;;;;31.70;15.20;;;8.50;99.90;;;;;;5092503;28;20016;-83
2023/04/09 03:11:23;;;;;;;30.10;14.33;;;8.40;99.90;;;;;;5075372;28;20043;-83
2023/04/09 03:13:49;;;;;;;31.13;15.02;;;8.40;99.90;;;;;;5075635;28;20274;-83
2023/04/09 03:16:14;;;;;;;33.53;14.90;;;8.40;99.90;;;;;;5108555;28;20122;-83
2023/04/09 03:18:40;;;;;;;33.03;15.27;;;8.40;99.90;;;;;;5075744;28;20044;-82
2023/04/09 03:21:07;;;;;;;33.97;15.57;;;8.40;99.90;;;;;;5092445;28;20388;-82
2023/04/09 03:23:33;;;;;;;33.38;14.77;;;8.40;99.90;;;;;;5092755;28;20285;-83
2023/04/09 03:26:04;;;;;;;33.20;14.93;;;8.30;99.90;;;;;;5092562;28;20071;-83
2023/04/09 03:28:30;;;;;;;34.20;15.77;;;8.30;99.90;;;;;;5075046;28;20078;-82
2023/04/09 03:30:56;;;;;;;31.90;15.10;;;8.30;99.90;;;;;;5076014;28;20508;-83
2023/04/09 03:33:22;;;;;;;32.17;14.75;;;8.30;99.90;;;;;;5075732;28;20083;-83
2023/04/09 03:35:48;;;;;;;31.55;14.68;;;8.30;99.90;;;;;;5075622;28;20047;-83
2023/04/09 03:38:14;;;;;;;32.28;15.05;;;8.30;99.90;;;;;;5057981;28;20081;-82
2023/04/09 03:40:41;;;;;;;31.52;15.20;;;8.30;99.90;;;;;;5091162;28;20032;-81
2023/04/09 03:43:07;;;;;;;33.58;15.93;;;8.30;99.90;;;;;;5074690;28;20488;-82
2023/04/09 03:45:33;;;;;;;38.42;15.48;;;8.30;99.90;;;;;;5091838;28;20034;-82
2023/04/09 03:47:59;;;;;;;37.58;15.52;;;8.30;99.90;;;;;;5074458;28;20076;-82
2023/04/09 03:50:24;;;;;;;33.97;15.35;;;8.30;99.90;;;;;;5074164;28;20042;-82
2023/04/09 03:52:50;;;;;;;37.20;15.88;;;8.30;99.90;;;;;;5108182;28;20085;-82
2023/04/09 03:55:16;;;;;;;37.03;15.07;;;8.30;99.90;;;;;;5072981;28;20116;-83
2023/04/09 03:57:41;;;;;;;40.85;17.17;;;8.30;99.90;;;;;;5074183;28;20046;-82
2023/04/09 04:00:08;;;;;;;35.10;16.10;;;8.30;99.90;;;;;;5073468;28;20515;-82
2023/04/09 04:02:34;;;;;;;36.55;15.75;;;8.30;99.90;;;;;;5075526;28;20039;-82
2023/04/09 04:04:59;;;;;;;32.73;15.13;;;8.30;99.90;;;;;;5078523;28;20071;-83
2023/04/09 04:07:26;;;;;;;38.13;16.80;;;8.20;99.90;;;;;;5095125;28;20367;-83
2023/04/09 04:09:51;;;;;;;35.40;15.38;;;8.20;99.90;;;;;;5095234;28;20035;-82
2023/04/09 04:12:17;;;;;;;38.17;15.73;;;8.20;99.90;;;;;;5077881;28;20035;-83
2023/04/09 04:14:43;;;;;;;37.53;16.73;;;8.30;99.90;;;;;;5094947;28;20323;-83
2023/04/09 04:17:09;;;;;;;36.08;16.40;;;8.30;99.90;;;;;;5077958;28;20101;-82
2023/04/09 04:19:35;;;;;;;36.70;15.75;;;8.20;99.90;;;;;;5078197;28;20027;-83
2023/04/09 04:22:01;;;;;;;34.23;15.17;;;8.20;99.90;;;;;;5094717;28;20564;-82
2023/04/09 04:24:26;;;;;;;35.03;15.73;;;8.30;99.90;;;;;;5076184;28;20282;-82
2023/04/09 04:26:52;;;;;;;38.47;18.10;;;8.30;99.90;;;;;;5076326;28;20343;-82
2023/04/09 04:29:18;;;;;;;38.70;17.00;;;8.20;99.90;;;;;;5077800;28;20118;-83
2023/04/09 04:31:44;;;;;;;35.22;16.63;;;8.20;99.90;;;;;;5094638;28;20126;-83
2023/04/09 04:34:09;;;;;;;37.63;17.15;;;8.20;99.90;;;;;;5077646;28;20527;-83
2023/04/09 04:36:36;;;;;;;40.00;16.88;;;8.20;99.90;;;;;;5091797;28;20482;-83
2023/04/09 04:39:02;;;;;;;40.80;16.85;;;8.20;99.90;;;;;;5077678;28;20453;-83
2023/04/09 04:41:28;;;;;;;36.03;16.55;;;8.20;99.90;;;;;;5076912;28;20085;-83
2023/04/09 04:43:54;;;;;;;35.92;16.38;;;8.10;99.90;;;;;;5094458;28;20027;-83
2023/04/09 04:46:20;;;;;;;35.15;16.70;;;8.20;99.90;;;;;;5093812;28;20175;-82
2023/04/09 04:48:46;;;;;;;38.05;17.15;;;8.20;99.90;;;;;;5077245;28;20039;-82
2023/04/09 04:51:12;;;;;;;35.83;16.70;;;8.20;99.90;;;;;;5077888;28;20448;-82
2023/04/09 04:53:37;;;;;;;39.92;17.40;;;8.20;99.90;;;;;;5076981;28;20071;-83
2023/04/09 04:56:03;;;;;;;36.77;16.53;;;8.20;99.90;;;;;;5077274;28;20043;-82
2023/04/09 04:58:29;;;;;;;32.25;15.82;;;8.20;99.90;;;;;;5077123;28;20355;-83
2023/04/09 05:00:55;;;;;;;38.00;16.25;;;8.20;99.90;;;;;;5077247;28;20031;-83
2023/04/09 05:03:21;;;;;;;39.25;17.10;;;8.20;99.90;;;;;;5093737;28;20642;-83
2023/04/09 05:05:46;;;;;;;36.53;17.60;;;8.20;99.90;;;;;;5093992;28;20434;-83
2023/04/09 05:08:12;;;;;;;39.45;17.98;;;8.20;99.90;;;;;;5077116;28;20031;-83
2023/04/09 05:10:41;;;;;;;38.65;17.15;;;8.20;99.90;;;;;;5110748;28;20035;-83
2023/04/09 05:13:07;;;;;;;39.50;18.50;;;7.50;99.90;;;;;;5108659;28;20185;-83
2023/04/09 05:15:36;;;;;;;39.13;17.92;;;8.20;99.90;;;;;;5075604;28;20126;-82
2023/04/09 05:18:01;;;;;;;36.80;18.08;;;8.10;99.90;;;;;;5093553;28;20035;-83
2023/04/09 05:20:27;;;;;;;36.92;16.92;;;8.20;99.90;;;;;;5093418;28;20038;-83
2023/04/09 05:22:53;;;;;;;42.40;18.15;;;8.20;99.90;;;;;;5076279;28;20039;-82
2023/04/09 05:25:18;;;;;;;41.85;19.13;;;8.20;99.90;;;;;;5075997;28;20036;-83
2023/04/09 05:27:44;;;;;;;38.75;18.40;;;8.20;99.90;;;;;;5093050;28;20440;-83
2023/04/09 05:30:10;;;;;;;38.75;17.45;;;8.20;99.90;;;;;;5076786;28;20509;-83
2023/04/09 05:32:37;;;;;;;40.20;18.30;;;8.20;99.90;;;;;;5093465;28;20411;-83
2023/04/09 05:35:02;;;;;;;37.05;17.30;;;8.20;99.90;;;;;;5110489;28;20148;-83
2023/04/09 05:37:28;;;;;;;38.00;18.73;;;8.20;99.90;;;;;;5076289;28;20523;-83
2023/04/09 05:39:55;;;;;;;42.35;18.90;;;8.20;99.90;;;;;;5076747;28;20035;-82
2023/04/09 05:42:21;;;;;;;38.00;19.02;;;8.20;99.90;;;;;;5076239;28;20516;-82
2023/04/09 05:44:46;;;;;;;39.47;18.10;;;8.20;99.90;;;;;;5109911;28;20039;-82
2023/04/09 05:47:12;;;;;;;33.38;16.13;;;8.20;99.90;;;;;;5092631;28;20058;-83
2023/04/09 05:49:38;;;;;;;35.30;16.52;;;8.20;99.90;;;;;;5056699;28;20108;-83
2023/04/09 05:52:03;;;;;;;39.33;16.58;;;8.20;99.90;;;;;;5093405;28;20403;-83
2023/04/09 05:54:30;;;;;;;38.25;17.27;;;8.20;99.90;;;;;;5092635;28;20061;-83
2023/04/09 05:56:56;;;;;;;36.10;15.88;;;8.20;99.90;;;;;;5109723;28;20047;-83
2023/04/09 05:59:21;;;;;;;26.60;13.05;;;8.30;99.90;;;;;;5059313;28;20084;-83
2023/04/09 06:01:47;;;;;;;29.07;13.07;;;8.30;99.90;;;;;;5057829;28;20028;-83
2023/04/09 06:04:13;;;;;;;25.30;12.23;;;8.30;99.90;;;;;;5075910;28;20403;-83
2023/04/09 06:06:38;;;;;;;28.90;13.33;;;8.30;99.90;;;;;;5074174;28;20715;-83
2023/04/09 06:09:04;;;;;;;27.43;13.33;;;8.30;99.90;;;;;;5076380;28;20273;-82
2023/04/09 06:11:31;;;;;;;30.52;14.95;;;8.30;99.90;;;;;;5075781;28;20351;-83
2023/04/09 06:13:56;;;;;;;25.65;12.63;;;8.30;99.90;;;;;;5090211;28;20040;-83
2023/04/09 06:16:22;;;;;;;27.60;13.33;;;8.30;99.90;;;;;;5075548;28;20160;-83
2023/04/09 06:18:49;;;;;;;29.57;13.60;;;8.30;99.90;;;;;;5092398;28;20302;-83
2023/04/09 06:21:15;;;;;;;27.02;12.70;;;8.30;99.90;;;;;;5092682;28;20652;-83
2023/04/09 06:23:42;;;;;;;26.92;12.45;;;8.30;99.90;;;;;;5109510;28;20135;-82
2023/04/09 06:26:08;;;;;;;26.17;12.65;;;8.30;99.90;;;;;;5109445;28;20111;-82
2023/04/09 06:28:35;;;;;;;30.43;14.17;;;8.30;99.90;;;;;;5092640;28;20146;-82
2023/04/09 06:31:01;;;;;;;29.42;13.52;;;8.20;99.90;;;;;;5075863;28;20663;-82
2023/04/09 06:33:26;;;;;;;29.45;13.45;;;8.20;99.90;;;;;;5073882;28;20051;-83
2023/04/09 06:35:52;;;;;;;28.60;13.20;;;8.20;99.90;;;;;;5057548;28;20032;-83
2023/04/09 06:38:18;;;;;;;27.53;13.50;;;8.30;99.90;;;;;;5075261;28;20079;-83
2023/04/09 06:40:44;;;;;;;26.33;13.63;;;8.30;99.90;;;;;;5092236;28;20296;-79
2023/04/09 06:43:10;;;;;;;30.75;14.00;;;8.30;99.90;;;;;;5109206;28;20056;-79
2023/04/09 06:45:36;;;;;;;28.42;13.27;;;8.30;99.90;;;;;;5109530;28;20695;-83
2023/04/09 06:48:02;;;;;;;28.88;13.38;;;8.40;99.90;;;;;;5095310;28;20035;-84
2023/04/09 06:50:28;;;;;;;31.98;14.38;;;8.40;99.90;;;;;;5112173;28;20493;-83
2023/04/09 06:52:54;;;;;;;31.80;13.73;;;8.40;99.90;;;;;;5077029;28;20036;-81
2023/04/09 06:55:20;;;;;;;29.25;14.02;;;8.40;99.90;;;;;;5078090;28;20043;-83
2023/04/09 06:57:49;;;;;;;28.85;13.80;;;8.40;99.90;;;;;;5094270;28;20035;-81
2023/04/09 07:00:15;;;;;;;28.45;13.65;;;8.40;99.90;;;;;;5092842;28;20519;-82
2023/04/09 07:02:41;;;;;;;28.52;13.10;;;8.50;99.90;;;;;;5092669;28;20047;-82
2023/04/09 07:05:07;;;;;;;27.02;12.90;;;8.50;99.90;;;;;;5109569;28;20035;-81
2023/04/09 07:07:33;;;;;;;26.30;13.85;;;8.50;99.90;;;;;;5106742;28;20043;-81
2023/04/09 07:09:59;;;;;;;26.95;13.27;;;8.50;99.90;;;;;;5075725;28;20040;-81
2023/04/09 07:12:29;;;;;;;29.05;13.98;;;8.40;99.90;;;;;;5090159;28;20517;-80
2023/04/09 07:15:02;;;;;;;31.13;14.60;;;8.40;99.90;;;;;;5091120;28;20023;-82
2023/04/09 07:17:27;;;;;;;29.17;14.48;;;8.50;99.90;;;;;;5088935;28;20044;-84
2023/04/09 07:19:53;;;;;;;31.40;16.02;;;8.50;99.90;;;;;;5090553;28;20323;-81
2023/04/09 07:22:23;;;;;;;33.40;14.88;;;8.50;99.90;;;;;;5090822;28;20474;-81
2023/04/09 07:24:52;;;;;;;34.80;15.73;;;8.50;99.90;;;;;;5090328;28;20392;-85
2023/04/09 07:27:26;;;;;;;35.88;15.60;;;8.50;99.90;;;;;;5091387;28;20039;-83
2023/04/09 07:29:59;;;;;;;31.58;15.48;;;8.60;99.90;;;;;;5084406;28;20085;-85
2023/04/09 07:32:28;;;;;;;31.27;14.75;;;8.70;99.90;;;;;;5088457;28;20051;-86
2023/04/09 07:34:54;;;;;;;30.30;14.85;;;8.90;99.90;;;;;;5088769;28;20057;-86
2023/04/09 07:37:20;;;;;;;29.63;15.05;;;9.00;99.90;;;;;;5109556;28;20109;-86
2023/04/09 07:39:46;;;;;;;33.33;15.55;;;9.20;99.90;;;;;;5095616;28;20040;-85
2023/04/09 07:42:12;;;;;;;;;;;9.30;99.90;;;;;;5096393;28;20573;-85
2023/04/09 07:44:38;;;;;;;30.73;15.40;;;9.30;99.90;;;;;;5095312;28;19963;-85
2023/04/09 07:47:06;;;;;;;38.08;15.82;;;9.40;99.90;;;;;;5095924;28;20032;-84
2023/04/09 07:49:34;;;;;;;33.92;15.73;;;9.40;99.90;;;;;;5111971;28;20046;-85
2023/04/09 07:51:59;;;;;;;38.03;16.70;;;9.50;99.90;;;;;;5111942;28;20035;-86
2023/04/09 07:54:25;;;;;;;34.13;16.15;;;9.30;99.90;;;;;;5095321;28;20099;-86
2023/04/09 07:56:51;;;;;;;34.25;16.30;;;9.30;99.90;;;;;;5061964;28;20552;-84
2023/04/09 07:59:17;;;;;;;33.47;15.88;;;9.30;99.90;;;;;;5080522;28;20036;-83
2023/04/09 08:01:43;;;;;;;37.58;16.10;;;9.30;99.90;;;;;;5110807;28;20040;-79
2023/04/09 08:04:09;;;;;;;33.80;15.95;;;9.30;99.90;;;;;;5096135;28;20035;-82
2023/04/09 08:06:35;;;;;;;;;;;9.30;99.90;;;;;;5095881;28;20086;-82
2023/04/09 08:09:01;;;;;;;37.28;16.00;;;9.30;99.90;;;;;;5095010;28;20517;-82
2023/04/09 08:11:27;;;;;;;34.20;15.93;;;9.40;99.90;;;;;;5078543;28;20041;-82
2023/04/09 08:13:53;;;;;;;35.53;15.85;;;9.40;99.90;;;;;;5094528;28;20040;-82
2023/04/09 08:16:20;;;;;;;30.85;14.95;;;9.40;99.90;;;;;;5095497;28;20139;-82
2023/04/09 08:18:46;;;;;;;35.70;17.17;;;9.40;99.90;;;;;;5094044;28;20038;-82
2023/04/09 08:21:12;;;;;;;;;;;9.50;99.90;;;;;;5112813;28;20034;-81
2023/04/09 08:23:37;;;;;;;35.03;17.05;;;9.50;99.90;;;;;;5107453;28;19916;-81
2023/04/09 08:26:03;;;;;;;38.20;16.07;;;9.50;99.90;;;;;;5095164;28;20050;-81
2023/04/09 08:28:29;;;;;;;36.60;15.88;;;9.40;99.90;;;;;;5094663;28;20031;-82
2023/04/09 08:30:55;;;;;;;36.53;16.55;;;9.40;99.90;;;;;;5094008;28;20043;-81
2023/04/09 08:33:21;;;;;;;32.97;15.05;;;9.50;99.90;;;;;;5102518;28;20127;-81
2023/04/09 08:35:46;;;;;;;32.92;14.63;;;9.50;99.90;;;;;;5111711;28;20047;-82
2023/04/09 08:38:13;;;;;;;30.80;16.70;;;9.50;99.90;;;;;;5094824;28;20176;-82
2023/04/09 08:40:39;;;;;;;35.70;16.67;;;9.60;99.90;;;;;;5093740;28;20388;-82
2023/04/09 08:43:07;;;;;;;34.78;16.40;;;9.60;99.90;;;;;;5078491;28;20130;-82
2023/04/09 08:45:33;;;;;;;33.17;15.80;;;9.50;99.90;;;;;;5095404;28;20034;-82
2023/04/09 08:48:02;;;;;;;32.72;15.15;;;9.50;99.90;;;;;;5095345;28;20138;-82
2023/04/09 08:50:33;;;;;;;33.53;15.10;;;9.50;99.90;;;;;;5093653;28;20479;-82
2023/04/09 08:53:03;;;;;;;32.88;16.40;;;9.60;99.90;;;;;;5077753;28;20031;-82
2023/04/09 08:55:30;;;;;;;32.30;16.27;;;9.70;99.90;;;;;;5111174;28;20122;-82
2023/04/09 08:57:57;;;;;;;30.80;15.63;;;9.70;99.90;;;;;;5060767;28;20039;-83
2023/04/09 09:00:23;;;;;;;30.45;15.35;;;9.80;99.90;;;;;;5111081;28;20040;-82
2023/04/09 09:03:07;;;;;;;29.90;14.93;;;9.90;99.90;;;;;;5092767;28;20043;-83
2023/04/09 09:05:44;;;;;;;29.90;14.55;;;9.90;99.90;;;;;;5110729;28;20068;-82
2023/04/09 09:08:12;;;;;;;31.33;15.30;;;10.00;99.90;;;;;;5120796;27;20522;-82
2023/04/09 09:10:43;;;;;;;27.80;14.20;;;10.10;99.90;;;;;;5110060;28;20069;-82
2023/04/09 09:13:26;;;;;;;30.13;14.48;;;10.20;99.90;;;;;;5086140;28;20491;-82
2023/04/09 09:15:55;;;;;;;28.23;14.68;;;10.30;99.90;;;;;;5091798;28;20040;-82
2023/04/09 09:18:41;;;;;;;31.80;15.45;;;10.30;99.90;;;;;;5125971;27;20412;-83
2023/04/09 09:21:15;;;;;;;29.27;14.23;;;10.30;99.90;;;;;;5110132;28;20089;-83
2023/04/09 09:23:44;;;;;;;28.58;13.77;;;10.40;99.90;;;;;;5092527;28;20089;-82
2023/04/09 09:26:23;;;;;;;33.33;14.82;;;10.40;99.90;;;;;;5093544;28;20126;-82
2023/04/09 09:28:49;;;;;;;32.08;14.75;;;10.40;99.90;;;;;;5108936;28;20043;-82
2023/04/09 09:31:17;;;;;;;27.17;14.07;;;10.40;99.90;;;;;;5109758;28;20034;-82
2023/04/09 09:33:43;;;;;;;30.05;14.45;;;10.50;99.90;;;;;;5099869;28;20039;-82
2023/04/09 09:36:09;;;;;;;34.13;17.98;;;10.60;99.90;;;;;;5092780;28;20046;-83
2023/04/09 09:38:56;;;;;;;30.65;15.40;;;10.70;99.90;;;;;;5109984;28;20071;-82
2023/04/09 09:41:22;;;;;;;;;;;10.70;99.90;;;;;;5109494;28;20067;-82
2023/04/09 09:43:48;;;;;;;34.95;16.98;;;10.70;99.90;;;;;;5093882;28;19915;-82
2023/04/09 09:46:15;;;;;;;31.30;15.20;;;10.80;99.90;;;;;;5109785;28;20546;-83
2023/04/09 09:48:41;;;;;;;;;;;10.90;99.90;;;;;;5091057;28;20047;-83
2023/04/09 09:51:09;;;;;;;33.15;15.23;;;10.90;99.90;;;;;;5094413;28;19920;-83
2023/04/09 09:53:36;;;;;;;29.02;14.75;;;11.00;99.90;;;;;;5095120;28;20512;-82
2023/04/09 09:56:05;;;;;;;32.05;16.10;;;10.40;99.90;;;;;;5111317;28;20042;-82
2023/04/09 09:58:39;;;;;;;30.55;15.70;;;11.10;99.90;;;;;;5110965;28;20047;-82
2023/04/09 10:01:12;;;;;;;30.67;15.02;;;11.20;99.90;;;;;;5110947;28;20467;-82
2023/04/09 10:03:39;;;;;;;28.08;15.65;;;11.20;99.90;;;;;;5109813;28;20063;-82
2023/04/09 10:06:09;;;;;;;30.70;15.52;;;11.20;99.90;;;;;;5093773;28;20097;-83
2023/04/09 10:08:37;;;;;;;31.15;15.25;;;11.30;99.90;;;;;;5110653;28;20076;-82
2023/04/09 10:11:05;;;;;;;31.33;16.13;;;11.40;99.90;;;;;;5110481;28;20039;-82
2023/04/09 10:13:50;;;;;;;30.08;15.05;;;11.50;99.90;;;;;;5110845;28;20047;-81
2023/04/09 10:16:17;;;;;;;32.63;16.58;;;11.60;99.90;;;;;;5111238;28;20032;-82
2023/04/09 10:18:43;;;;;;;30.60;14.68;;;12.00;99.90;;;;;;5094960;28;20044;-83
2023/04/09 10:21:37;;;;;;;30.55;15.45;;;12.40;99.90;;;;;;5111185;28;20126;-82
2023/04/09 10:24:05;;;;;;;29.92;14.93;;;12.70;99.90;;;;;;5124538;27;20038;-82
2023/04/09 10:26:39;;;;;;;23.65;12.45;;;12.60;99.90;;;;;;5110913;28;20046;-82
2023/04/09 10:29:12;;;;;;;26.10;13.80;;;13.00;99.90;;;;;;5126885;27;20050;-83
2023/04/09 10:31:48;;;;;;;27.55;14.60;;;13.00;99.90;;;;;;5110959;28;20043;-83
2023/04/09 10:34:16;;;;;;;26.38;13.75;;;13.00;99.90;;;;;;5124762;27;20177;-82
2023/04/09 10:36:43;;;;;;;27.88;14.40;;;13.10;99.90;;;;;;5093671;28;20031;-83
2023/04/09 10:39:13;;;;;;;30.70;16.42;;;13.30;99.90;;;;;;5093975;28;20444;-84
2023/04/09 10:41:41;;;;;;;30.38;15.93;;;13.30;99.90;;;;;;5093725;28;20043;-83
2023/04/09 10:44:25;;;;;;;27.08;14.98;;;13.70;99.90;;;;;;5093455;28;20043;-83
2023/04/09 10:46:55;;;;;;;27.40;14.85;;;14.50;99.90;;;;;;5108068;28;20045;-82
2023/04/09 10:49:23;;;;;;;25.33;14.60;;;14.90;99.90;;;;;;5111056;28;20070;-84
2023/04/09 10:52:05;;;;;;;23.77;14.27;;;15.40;99.90;;;;;;5094692;28;20035;-87
2023/04/09 10:54:33;;;;;;;25.50;15.18;;;15.50;99.90;;;;;;5092992;28;20039;-83
2023/04/09 10:57:08;;;;;;;26.27;14.40;;;15.70;99.90;;;;;;5111272;28;20089;-83
2023/04/09 10:59:43;;;;;;;23.65;14.32;;;15.90;99.90;;;;;;5094768;28;20040;-83
2023/04/09 11:02:34;;;;;;;26.42;15.43;;;15.60;99.90;;;;;;5077532;28;20163;-82
2023/04/09 11:05:18;;;;;;;28.25;14.75;;;15.30;99.90;;;;;;5107459;28;20090;-81
2023/04/09 11:07:48;;;;;;;27.45;16.00;;;14.80;99.90;;;;;;5110347;28;20035;-83
2023/04/09 11:10:14;;;;;;;27.63;15.57;;;14.70;99.90;;;;;;5110049;28;20484;-81
2023/04/09 11:12:40;;;;;;;26.38;14.77;;;14.60;99.90;;;;;;5092196;28;20148;-83
2023/04/09 11:15:14;;;;;;;25.00;14.43;;;14.50;99.90;;;;;;5093428;28;20039;-84
2023/04/09 11:17:40;;;;;;;27.17;15.60;;;14.50;99.90;;;;;;5095089;28;20039;-86
2023/04/09 11:20:06;;;;;;;24.67;14.57;;;14.70;99.90;;;;;;5077421;28;20118;-82
2023/04/09 11:22:33;;;;;;;24.15;14.57;;;15.10;99.90;;;;;;5093331;28;20069;-85
2023/04/09 11:24:58;;;;;;;25.98;15.18;;;15.30;99.90;;;;;;5093764;28;20039;-82
2023/04/09 11:27:24;;;;;;;25.42;14.93;;;15.60;99.90;;;;;;5093520;28;20441;-88
2023/04/09 11:29:54;;;;;;;25.90;14.95;;;16.10;99.90;;;;;;5094416;28;20430;-84
2023/04/09 11:32:20;;;;;;;24.88;14.93;;;16.60;99.90;;;;;;5074795;28;20492;-85
2023/04/09 11:34:46;;;;;;;24.63;13.93;;;17.00;99.90;;;;;;5110671;28;20047;-87
2023/04/09 11:37:15;;;;;;;25.20;15.25;;;17.50;99.90;;;;;;5093791;28;20221;-88
2023/04/09 11:39:45;;;;;;;25.33;15.40;;;17.80;99.90;;;;;;5078492;28;20043;-87
2023/04/09 11:42:14;;;;;;;23.55;15.27;;;17.90;99.90;;;;;;5076744;28;20059;-88
2023/04/09 11:44:40;;;;;;;24.70;15.77;;;17.20;99.90;;;;;;5093779;28;20031;-85
2023/04/09 11:47:08;;;;;;;24.42;16.23;;;16.60;99.90;;;;;;5093599;28;20115;-83
2023/04/09 11:49:34;;;;;;;26.17;15.45;;;16.30;99.90;;;;;;5110479;28;20043;-83
2023/04/09 11:52:02;;;;;;;22.52;14.02;;;16.20;99.90;;;;;;5059860;28;20503;-84
2023/04/09 11:54:35;;;;;;;24.48;14.15;;;16.30;99.90;;;;;;5093455;28;20073;-84
2023/04/09 11:57:03;;;;;;;28.83;16.17;;;16.30;99.90;;;;;;5104364;28;20042;-86
2023/04/09 11:59:29;;;;;;;22.73;14.00;;;16.00;99.90;;;;;;5110535;28;20436;-85
2023/04/09 12:01:57;;;;;;;23.00;14.55;;;15.90;99.90;;;;;;5091033;28;20066;-82
2023/04/09 12:04:23;;;;;;;24.83;14.60;;;15.80;99.90;;;;;;5090240;28;20031;-83
2023/04/09 12:06:49;;;;;;;25.23;14.40;;;15.50;99.90;;;;;;5091235;28;20032;-83
2023/04/09 12:09:15;;;;;;;22.25;12.90;;;15.40;99.90;;;;;;5090538;28;20031;-81
2023/04/09 12:11:45;;;;;;;20.08;11.90;;;15.30;99.90;;;;;;5073164;28;20460;-82
2023/04/09 12:14:15;;;;;;;20.88;12.80;;;15.70;99.90;;;;;;5106792;28;20044;-81
2023/04/09 12:16:43;;;;;;;19.35;12.40;;;16.40;99.90;;;;;;5073641;28;20032;-83
2023/04/09 12:19:10;;;;;;;20.15;12.50;;;16.80;99.90;;;;;;5073384;28;20036;-81
2023/04/09 12:21:54;;;;;;;21.33;13.13;;;16.80;99.90;;;;;;5107252;28;20059;-81
2023/04/09 12:24:22;;;;;;;21.10;13.23;;;16.90;99.90;;;;;;5090356;28;20031;-82
2023/04/09 12:26:49;;;;;;;22.25;13.40;;;17.00;99.90;;;;;;5094408;28;20032;-82
2023/04/09 12:29:16;;;;;;;22.73;13.32;;;16.60;99.90;;;;;;5092883;28;20039;-82
2023/04/09 12:31:43;;;;;;;21.63;12.75;;;16.50;99.90;;;;;;5094117;28;20068;-83
2023/04/09 12:34:08;;;;;;;;;;;16.70;99.90;;;;;;5112180;28;20071;-83
2023/04/09 12:36:34;;;;;;;21.38;13.35;;;16.60;99.90;;;;;;5112295;28;20412;-82
2023/04/09 12:39:00;;;;;;;20.85;12.88;;;16.70;99.90;;;;;;5094452;28;20047;-84
2023/04/09 12:41:26;;;;;;;20.60;13.25;;;16.90;99.90;;;;;;5091466;28;20475;-82